sensor_id;sensor_type;location;lat;lon;timestamp;P1;durP1;ratioP1;P2;durP2;ratioP2
49139;SDS011;34959;49.310;8.646;2023-09-07T00:00:09;4.85;;;2.80;;
49139;SDS011;34959;49.310;8.646;2023-09-07T00:02:35;3.45;;;2.72;;
49139;SDS011;34959;49.310;8.646;2023-09-07T00:05:01;12.07;;;3.08;;
49139;SDS011;34959;49.310;8.646;2023-09-07T00:07:26;5.68;;;2.90;;
49139;SDS011;34959;49.310;8.646;2023-09-07T00:09:52;3.67;;;2.42;;
49139;SDS011;34959;49.310;8.646;2023-09-07T00:12:17;5.20;;;2.65;;
49139;SDS011;34959;49.310;8.646;2023-09-07T00:14:42;4.45;;;2.55;;
49139;SDS011;34959;49.310;8.646;2023-09-07T00:17:08;5.32;;;2.55;;
49139;SDS011;34959;49.310;8.646;2023-09-07T00:19:33;4.60;;;2.50;;
49139;SDS011;34959;49.310;8.646;2023-09-07T00:22:02;9.23;;;2.75;;
49139;SDS011;34959;49.310;8.646;2023-09-07T00:24:28;3.10;;;2.50;;
49139;SDS011;34959;49.310;8.646;2023-09-07T00:26:53;4.30;;;3.08;;
49139;SDS011;34959;49.310;8.646;2023-09-07T00:29:19;3.50;;;2.47;;
49139;SDS011;34959;49.310;8.646;2023-09-07T00:31:44;4.15;;;2.60;;
49139;SDS011;34959;49.310;8.646;2023-09-07T00:34:09;3.33;;;2.58;;
49139;SDS011;34959;49.310;8.646;2023-09-07T00:36:35;4.68;;;2.80;;
49139;SDS011;34959;49.310;8.646;2023-09-07T00:39:01;4.40;;;2.40;;
49139;SDS011;34959;49.310;8.646;2023-09-07T00:41:27;5.30;;;2.50;;
49139;SDS011;34959;49.310;8.646;2023-09-07T00:43:52;3.30;;;2.38;;
49139;SDS011;34959;49.310;8.646;2023-09-07T00:46:18;3.85;;;2.45;;
49139;SDS011;34959;49.310;8.646;2023-09-07T00:48:43;3.70;;;2.60;;
49139;SDS011;34959;49.310;8.646;2023-09-07T00:51:09;4.72;;;2.38;;
49139;SDS011;34959;49.310;8.646;2023-09-07T00:53:34;4.38;;;2.78;;
49139;SDS011;34959;49.310;8.646;2023-09-07T00:55:59;3.45;;;2.50;;
49139;SDS011;34959;49.310;8.646;2023-09-07T00:58:25;4.00;;;2.70;;
49139;SDS011;34959;49.310;8.646;2023-09-07T01:00:51;3.33;;;2.60;;
49139;SDS011;34959;49.310;8.646;2023-09-07T01:03:16;3.95;;;2.40;;
49139;SDS011;34959;49.310;8.646;2023-09-07T01:08:24;3.28;;;2.47;;
49139;SDS011;34959;49.310;8.646;2023-09-07T01:10:51;3.97;;;2.50;;
49139;SDS011;34959;49.310;8.646;2023-09-07T01:13:18;7.38;;;2.58;;
49139;SDS011;34959;49.310;8.646;2023-09-07T01:15:44;3.50;;;2.47;;
49139;SDS011;34959;49.310;8.646;2023-09-07T01:18:09;4.55;;;2.65;;
49139;SDS011;34959;49.310;8.646;2023-09-07T01:20:35;4.25;;;2.40;;
49139;SDS011;34959;49.310;8.646;2023-09-07T01:23:02;6.32;;;2.60;;
49139;SDS011;34959;49.310;8.646;2023-09-07T01:25:28;2.80;;;2.17;;
49139;SDS011;34959;49.310;8.646;2023-09-07T01:27:53;3.38;;;2.38;;
49139;SDS011;34959;49.310;8.646;2023-09-07T01:30:19;5.38;;;3.05;;
49139;SDS011;34959;49.310;8.646;2023-09-07T01:32:45;3.63;;;2.42;;
49139;SDS011;34959;49.310;8.646;2023-09-07T01:35:10;4.30;;;2.22;;
49139;SDS011;34959;49.310;8.646;2023-09-07T01:37:37;3.20;;;2.35;;
49139;SDS011;34959;49.310;8.646;2023-09-07T01:40:02;2.60;;;2.40;;
49139;SDS011;34959;49.310;8.646;2023-09-07T01:42:32;3.40;;;2.30;;
49139;SDS011;34959;49.310;8.646;2023-09-07T01:44:58;3.08;;;2.20;;
49139;SDS011;34959;49.310;8.646;2023-09-07T01:47:23;3.58;;;2.25;;
49139;SDS011;34959;49.310;8.646;2023-09-07T01:49:49;3.53;;;2.38;;
49139;SDS011;34959;49.310;8.646;2023-09-07T01:52:14;3.55;;;2.50;;
49139;SDS011;34959;49.310;8.646;2023-09-07T01:54:39;4.28;;;2.40;;
49139;SDS011;34959;49.310;8.646;2023-09-07T01:57:05;3.13;;;2.30;;
49139;SDS011;34959;49.310;8.646;2023-09-07T01:59:30;2.90;;;2.22;;
49139;SDS011;34959;49.310;8.646;2023-09-07T02:01:56;3.35;;;2.42;;
49139;SDS011;34959;49.310;8.646;2023-09-07T02:04:21;3.83;;;2.42;;
49139;SDS011;34959;49.310;8.646;2023-09-07T02:06:46;3.55;;;2.55;;
49139;SDS011;34959;49.310;8.646;2023-09-07T02:09:12;2.33;;;2.13;;
49139;SDS011;34959;49.310;8.646;2023-09-07T02:11:37;2.88;;;2.22;;
49139;SDS011;34959;49.310;8.646;2023-09-07T02:14:02;2.83;;;2.20;;
49139;SDS011;34959;49.310;8.646;2023-09-07T02:16:28;3.55;;;2.55;;
49139;SDS011;34959;49.310;8.646;2023-09-07T02:19:00;3.00;;;1.95;;
49139;SDS011;34959;49.310;8.646;2023-09-07T02:21:28;3.40;;;2.33;;
49139;SDS011;34959;49.310;8.646;2023-09-07T02:23:53;3.20;;;2.65;;
49139;SDS011;34959;49.310;8.646;2023-09-07T02:26:19;3.00;;;2.25;;
49139;SDS011;34959;49.310;8.646;2023-09-07T02:28:44;3.08;;;2.15;;
49139;SDS011;34959;49.310;8.646;2023-09-07T02:31:10;8.48;;;2.55;;
49139;SDS011;34959;49.310;8.646;2023-09-07T02:33:35;2.85;;;2.10;;
49139;SDS011;34959;49.310;8.646;2023-09-07T02:36:00;3.47;;;2.33;;
49139;SDS011;34959;49.310;8.646;2023-09-07T02:38:26;3.35;;;2.38;;
49139;SDS011;34959;49.310;8.646;2023-09-07T02:40:51;3.80;;;2.20;;
49139;SDS011;34959;49.310;8.646;2023-09-07T02:43:18;3.45;;;2.35;;
49139;SDS011;34959;49.310;8.646;2023-09-07T02:45:43;21.10;;;2.42;;
49139;SDS011;34959;49.310;8.646;2023-09-07T02:48:08;9.25;;;2.25;;
49139;SDS011;34959;49.310;8.646;2023-09-07T02:50:34;8.13;;;3.10;;
49139;SDS011;34959;49.310;8.646;2023-09-07T02:53:00;4.50;;;2.15;;
49139;SDS011;34959;49.310;8.646;2023-09-07T02:55:26;4.45;;;2.20;;
49139;SDS011;34959;49.310;8.646;2023-09-07T02:57:52;4.63;;;2.42;;
49139;SDS011;34959;49.310;8.646;2023-09-07T03:00:17;2.33;;;1.92;;
49139;SDS011;34959;49.310;8.646;2023-09-07T03:02:43;3.20;;;2.10;;
49139;SDS011;34959;49.310;8.646;2023-09-07T03:05:09;2.88;;;2.25;;
49139;SDS011;34959;49.310;8.646;2023-09-07T03:07:34;8.18;;;2.08;;
49139;SDS011;34959;49.310;8.646;2023-09-07T03:09:59;6.22;;;2.38;;
49139;SDS011;34959;49.310;8.646;2023-09-07T03:12:26;3.40;;;2.30;;
49139;SDS011;34959;49.310;8.646;2023-09-07T03:14:52;3.85;;;1.98;;
49139;SDS011;34959;49.310;8.646;2023-09-07T03:17:18;2.92;;;2.17;;
49139;SDS011;34959;49.310;8.646;2023-09-07T03:19:43;3.00;;;2.20;;
49139;SDS011;34959;49.310;8.646;2023-09-07T03:22:09;2.85;;;2.10;;
49139;SDS011;34959;49.310;8.646;2023-09-07T03:24:35;4.57;;;2.10;;
49139;SDS011;34959;49.310;8.646;2023-09-07T03:27:00;2.75;;;1.90;;
49139;SDS011;34959;49.310;8.646;2023-09-07T03:29:25;2.15;;;1.83;;
49139;SDS011;34959;49.310;8.646;2023-09-07T03:31:51;3.08;;;2.17;;
49139;SDS011;34959;49.310;8.646;2023-09-07T03:34:16;3.40;;;2.03;;
49139;SDS011;34959;49.310;8.646;2023-09-07T03:36:42;2.72;;;2.20;;
49139;SDS011;34959;49.310;8.646;2023-09-07T03:39:07;3.30;;;2.30;;
49139;SDS011;34959;49.310;8.646;2023-09-07T03:41:33;4.35;;;2.38;;
49139;SDS011;34959;49.310;8.646;2023-09-07T03:43:59;4.70;;;2.20;;
49139;SDS011;34959;49.310;8.646;2023-09-07T03:46:26;3.00;;;2.28;;
49139;SDS011;34959;49.310;8.646;2023-09-07T03:48:51;2.60;;;2.20;;
49139;SDS011;34959;49.310;8.646;2023-09-07T03:51:17;3.65;;;2.10;;
49139;SDS011;34959;49.310;8.646;2023-09-07T03:53:42;3.47;;;2.42;;
49139;SDS011;34959;49.310;8.646;2023-09-07T03:56:08;3.08;;;2.00;;
49139;SDS011;34959;49.310;8.646;2023-09-07T03:58:33;3.28;;;2.15;;
49139;SDS011;34959;49.310;8.646;2023-09-07T04:00:59;3.30;;;2.10;;
49139;SDS011;34959;49.310;8.646;2023-09-07T04:03:25;3.20;;;2.40;;
49139;SDS011;34959;49.310;8.646;2023-09-07T04:05:50;3.03;;;2.20;;
49139;SDS011;34959;49.310;8.646;2023-09-07T04:08:16;3.95;;;2.17;;
49139;SDS011;34959;49.310;8.646;2023-09-07T04:10:41;3.13;;;2.28;;
49139;SDS011;34959;49.310;8.646;2023-09-07T04:13:06;3.72;;;2.15;;
49139;SDS011;34959;49.310;8.646;2023-09-07T04:15:42;3.55;;;2.10;;
49139;SDS011;34959;49.310;8.646;2023-09-07T04:18:09;2.30;;;2.00;;
49139;SDS011;34959;49.310;8.646;2023-09-07T04:20:34;2.58;;;2.35;;
49139;SDS011;34959;49.310;8.646;2023-09-07T04:22:59;5.53;;;2.25;;
49139;SDS011;34959;49.310;8.646;2023-09-07T04:25:25;2.13;;;1.92;;
49139;SDS011;34959;49.310;8.646;2023-09-07T04:27:51;5.57;;;2.45;;
49139;SDS011;34959;49.310;8.646;2023-09-07T04:30:16;3.92;;;2.10;;
49139;SDS011;34959;49.310;8.646;2023-09-07T04:32:42;3.45;;;2.10;;
49139;SDS011;34959;49.310;8.646;2023-09-07T04:35:07;3.65;;;2.17;;
49139;SDS011;34959;49.310;8.646;2023-09-07T04:37:33;3.80;;;2.22;;
49139;SDS011;34959;49.310;8.646;2023-09-07T04:39:58;5.10;;;2.40;;
49139;SDS011;34959;49.310;8.646;2023-09-07T04:42:23;4.80;;;2.50;;
49139;SDS011;34959;49.310;8.646;2023-09-07T04:44:49;9.57;;;2.42;;
49139;SDS011;34959;49.310;8.646;2023-09-07T04:47:14;18.67;;;2.55;;
49139;SDS011;34959;49.310;8.646;2023-09-07T04:49:47;7.72;;;2.47;;
49139;SDS011;34959;49.310;8.646;2023-09-07T04:52:14;10.75;;;2.45;;
49139;SDS011;34959;49.310;8.646;2023-09-07T04:54:39;4.35;;;2.10;;
49139;SDS011;34959;49.310;8.646;2023-09-07T04:57:05;5.10;;;2.15;;
49139;SDS011;34959;49.310;8.646;2023-09-07T04:59:30;3.88;;;2.28;;
49139;SDS011;34959;49.310;8.646;2023-09-07T05:01:58;5.65;;;2.65;;
49139;SDS011;34959;49.310;8.646;2023-09-07T05:04:25;3.58;;;2.05;;
49139;SDS011;34959;49.310;8.646;2023-09-07T05:06:51;4.88;;;2.13;;
49139;SDS011;34959;49.310;8.646;2023-09-07T05:09:16;3.25;;;2.05;;
49139;SDS011;34959;49.310;8.646;2023-09-07T05:11:42;3.33;;;2.30;;
49139;SDS011;34959;49.310;8.646;2023-09-07T05:14:07;6.82;;;2.55;;
49139;SDS011;34959;49.310;8.646;2023-09-07T05:16:33;4.97;;;2.40;;
49139;SDS011;34959;49.310;8.646;2023-09-07T05:18:58;3.63;;;2.40;;
49139;SDS011;34959;49.310;8.646;2023-09-07T05:21:24;4.40;;;2.20;;
49139;SDS011;34959;49.310;8.646;2023-09-07T05:23:49;5.78;;;2.55;;
49139;SDS011;34959;49.310;8.646;2023-09-07T05:26:20;3.58;;;2.75;;
49139;SDS011;34959;49.310;8.646;2023-09-07T05:28:46;2.37;;;2.10;;
49139;SDS011;34959;49.310;8.646;2023-09-07T05:31:11;4.05;;;2.35;;
49139;SDS011;34959;49.310;8.646;2023-09-07T05:33:36;4.40;;;2.03;;
49139;SDS011;34959;49.310;8.646;2023-09-07T05:36:02;3.60;;;2.35;;
49139;SDS011;34959;49.310;8.646;2023-09-07T05:38:27;4.65;;;2.30;;
49139;SDS011;34959;49.310;8.646;2023-09-07T05:40:53;9.57;;;3.42;;
49139;SDS011;34959;49.310;8.646;2023-09-07T05:43:19;6.70;;;3.75;;
49139;SDS011;34959;49.310;8.646;2023-09-07T05:45:45;5.75;;;3.60;;
49139;SDS011;34959;49.310;8.646;2023-09-07T05:48:10;8.48;;;3.38;;
49139;SDS011;34959;49.310;8.646;2023-09-07T05:50:36;6.40;;;3.63;;
49139;SDS011;34959;49.310;8.646;2023-09-07T05:53:03;7.57;;;3.35;;
49139;SDS011;34959;49.310;8.646;2023-09-07T05:55:29;9.02;;;3.35;;
49139;SDS011;34959;49.310;8.646;2023-09-07T05:57:54;4.32;;;3.28;;
49139;SDS011;34959;49.310;8.646;2023-09-07T06:00:20;6.35;;;3.20;;
49139;SDS011;34959;49.310;8.646;2023-09-07T06:02:46;7.03;;;3.80;;
49139;SDS011;34959;49.310;8.646;2023-09-07T06:05:12;5.40;;;3.17;;
49139;SDS011;34959;49.310;8.646;2023-09-07T06:07:37;6.47;;;3.42;;
49139;SDS011;34959;49.310;8.646;2023-09-07T06:10:03;6.40;;;3.03;;
49139;SDS011;34959;49.310;8.646;2023-09-07T06:12:30;4.93;;;2.90;;
49139;SDS011;34959;49.310;8.646;2023-09-07T06:14:56;7.45;;;3.10;;
49139;SDS011;34959;49.310;8.646;2023-09-07T06:17:21;9.18;;;3.40;;
49139;SDS011;34959;49.310;8.646;2023-09-07T06:19:47;4.90;;;3.45;;
49139;SDS011;34959;49.310;8.646;2023-09-07T06:22:12;4.10;;;2.90;;
49139;SDS011;34959;49.310;8.646;2023-09-07T06:24:38;7.50;;;2.95;;
49139;SDS011;34959;49.310;8.646;2023-09-07T06:27:03;4.30;;;3.08;;
49139;SDS011;34959;49.310;8.646;2023-09-07T06:29:29;9.65;;;2.90;;
49139;SDS011;34959;49.310;8.646;2023-09-07T06:31:54;5.35;;;3.15;;
49139;SDS011;34959;49.310;8.646;2023-09-07T06:34:19;7.30;;;3.17;;
49139;SDS011;34959;49.310;8.646;2023-09-07T06:36:45;6.47;;;2.85;;
49139;SDS011;34959;49.310;8.646;2023-09-07T06:39:10;5.55;;;2.90;;
49139;SDS011;34959;49.310;8.646;2023-09-07T06:41:36;5.40;;;3.03;;
49139;SDS011;34959;49.310;8.646;2023-09-07T06:44:01;5.97;;;3.15;;
49139;SDS011;34959;49.310;8.646;2023-09-07T06:46:26;4.38;;;2.67;;
49139;SDS011;34959;49.310;8.646;2023-09-07T06:48:52;7.55;;;3.10;;
49139;SDS011;34959;49.310;8.646;2023-09-07T06:51:17;5.68;;;3.10;;
49139;SDS011;34959;49.310;8.646;2023-09-07T06:53:43;3.97;;;2.95;;
49139;SDS011;34959;49.310;8.646;2023-09-07T06:56:08;5.70;;;3.30;;
49139;SDS011;34959;49.310;8.646;2023-09-07T06:58:34;3.80;;;2.65;;
49139;SDS011;34959;49.310;8.646;2023-09-07T07:01:00;5.32;;;2.92;;
49139;SDS011;34959;49.310;8.646;2023-09-07T07:03:29;5.10;;;3.00;;
49139;SDS011;34959;49.310;8.646;2023-09-07T07:05:55;6.30;;;3.20;;
49139;SDS011;34959;49.310;8.646;2023-09-07T07:08:21;3.42;;;3.05;;
49139;SDS011;34959;49.310;8.646;2023-09-07T07:10:46;6.05;;;2.92;;
49139;SDS011;34959;49.310;8.646;2023-09-07T07:13:12;5.50;;;2.90;;
49139;SDS011;34959;49.310;8.646;2023-09-07T07:15:37;3.85;;;2.75;;
49139;SDS011;34959;49.310;8.646;2023-09-07T07:18:02;6.45;;;2.97;;
49139;SDS011;34959;49.310;8.646;2023-09-07T07:20:34;3.28;;;2.70;;
49139;SDS011;34959;49.310;8.646;2023-09-07T07:23:00;5.32;;;2.80;;
49139;SDS011;34959;49.310;8.646;2023-09-07T07:25:25;3.42;;;2.80;;
49139;SDS011;34959;49.310;8.646;2023-09-07T07:27:51;5.70;;;2.90;;
49139;SDS011;34959;49.310;8.646;2023-09-07T07:30:16;3.30;;;2.80;;
49139;SDS011;34959;49.310;8.646;2023-09-07T07:32:42;4.45;;;2.65;;
49139;SDS011;34959;49.310;8.646;2023-09-07T07:35:07;4.20;;;2.83;;
49139;SDS011;34959;49.310;8.646;2023-09-07T07:37:32;5.18;;;2.88;;
49139;SDS011;34959;49.310;8.646;2023-09-07T07:39:58;4.53;;;2.55;;
49139;SDS011;34959;49.310;8.646;2023-09-07T07:42:23;2.75;;;2.28;;
49139;SDS011;34959;49.310;8.646;2023-09-07T07:44:49;6.15;;;2.85;;
49139;SDS011;34959;49.310;8.646;2023-09-07T07:47:14;3.60;;;2.80;;
49139;SDS011;34959;49.310;8.646;2023-09-07T07:49:39;3.25;;;2.60;;
49139;SDS011;34959;49.310;8.646;2023-09-07T07:52:05;3.92;;;2.55;;
49139;SDS011;34959;49.310;8.646;2023-09-07T07:54:32;3.88;;;2.97;;
49139;SDS011;34959;49.310;8.646;2023-09-07T07:56:58;2.92;;;2.42;;
49139;SDS011;34959;49.310;8.646;2023-09-07T07:59:23;2.70;;;2.38;;
49139;SDS011;34959;49.310;8.646;2023-09-07T08:01:49;3.40;;;2.90;;
49139;SDS011;34959;49.310;8.646;2023-09-07T08:04:14;4.45;;;2.70;;
49139;SDS011;34959;49.310;8.646;2023-09-07T08:06:40;2.83;;;2.25;;
49139;SDS011;34959;49.310;8.646;2023-09-07T08:09:05;5.85;;;2.78;;
49139;SDS011;34959;49.310;8.646;2023-09-07T08:11:31;3.80;;;2.72;;
49139;SDS011;34959;49.310;8.646;2023-09-07T08:13:56;3.25;;;2.25;;
49139;SDS011;34959;49.310;8.646;2023-09-07T08:16:22;4.13;;;2.83;;
49139;SDS011;34959;49.310;8.646;2023-09-07T08:18:48;2.83;;;2.50;;
49139;SDS011;34959;49.310;8.646;2023-09-07T08:21:13;3.65;;;2.40;;
49139;SDS011;34959;49.310;8.646;2023-09-07T08:23:39;3.90;;;2.60;;
49139;SDS011;34959;49.310;8.646;2023-09-07T08:26:04;4.38;;;2.30;;
49139;SDS011;34959;49.310;8.646;2023-09-07T08:28:30;3.22;;;2.45;;
49139;SDS011;34959;49.310;8.646;2023-09-07T08:30:55;3.20;;;2.50;;
49139;SDS011;34959;49.310;8.646;2023-09-07T08:33:24;3.35;;;2.25;;
49139;SDS011;34959;49.310;8.646;2023-09-07T08:35:54;2.88;;;2.42;;
49139;SDS011;34959;49.310;8.646;2023-09-07T08:38:20;2.92;;;2.30;;
49139;SDS011;34959;49.310;8.646;2023-09-07T08:40:50;5.35;;;2.50;;
49139;SDS011;34959;49.310;8.646;2023-09-07T08:43:16;3.10;;;2.33;;
49139;SDS011;34959;49.310;8.646;2023-09-07T08:45:46;3.60;;;2.20;;
49139;SDS011;34959;49.310;8.646;2023-09-07T08:48:25;2.55;;;2.20;;
49139;SDS011;34959;49.310;8.646;2023-09-07T08:50:51;3.38;;;2.30;;
49139;SDS011;34959;49.310;8.646;2023-09-07T08:53:18;3.60;;;2.47;;
49139;SDS011;34959;49.310;8.646;2023-09-07T08:55:45;3.47;;;2.30;;
49139;SDS011;34959;49.310;8.646;2023-09-07T08:58:10;3.22;;;2.22;;
49139;SDS011;34959;49.310;8.646;2023-09-07T09:00:36;4.10;;;2.38;;
49139;SDS011;34959;49.310;8.646;2023-09-07T09:03:02;3.17;;;2.40;;
49139;SDS011;34959;49.310;8.646;2023-09-07T09:05:28;3.22;;;2.35;;
49139;SDS011;34959;49.310;8.646;2023-09-07T09:08:05;2.38;;;2.00;;
49139;SDS011;34959;49.310;8.646;2023-09-07T09:10:30;2.92;;;2.40;;
49139;SDS011;34959;49.310;8.646;2023-09-07T09:12:56;3.05;;;2.53;;
49139;SDS011;34959;49.310;8.646;2023-09-07T09:15:24;2.85;;;2.50;;
49139;SDS011;34959;49.310;8.646;2023-09-07T09:17:50;2.80;;;2.30;;
49139;SDS011;34959;49.310;8.646;2023-09-07T09:20:25;2.95;;;2.40;;
49139;SDS011;34959;49.310;8.646;2023-09-07T09:22:54;2.78;;;2.45;;
49139;SDS011;34959;49.310;8.646;2023-09-07T09:25:20;2.80;;;2.17;;
49139;SDS011;34959;49.310;8.646;2023-09-07T09:27:46;2.80;;;2.40;;
49139;SDS011;34959;49.310;8.646;2023-09-07T09:30:12;4.45;;;2.40;;
49139;SDS011;34959;49.310;8.646;2023-09-07T09:32:41;2.85;;;2.20;;
49139;SDS011;34959;49.310;8.646;2023-09-07T09:35:08;2.88;;;2.28;;
49139;SDS011;34959;49.310;8.646;2023-09-07T09:37:42;3.50;;;2.40;;
49139;SDS011;34959;49.310;8.646;2023-09-07T09:40:08;3.28;;;2.20;;
49139;SDS011;34959;49.310;8.646;2023-09-07T09:42:35;3.90;;;2.42;;
49139;SDS011;34959;49.310;8.646;2023-09-07T09:45:01;2.75;;;2.47;;
49139;SDS011;34959;49.310;8.646;2023-09-07T09:47:28;3.30;;;2.15;;
49139;SDS011;34959;49.310;8.646;2023-09-07T09:49:53;2.17;;;1.92;;
49139;SDS011;34959;49.310;8.646;2023-09-07T09:52:19;3.38;;;2.30;;
49139;SDS011;34959;49.310;8.646;2023-09-07T09:54:45;2.83;;;2.17;;
49139;SDS011;34959;49.310;8.646;2023-09-07T09:57:11;2.60;;;2.10;;
49139;SDS011;34959;49.310;8.646;2023-09-07T09:59:37;2.40;;;2.20;;
49139;SDS011;34959;49.310;8.646;2023-09-07T10:02:03;2.60;;;2.25;;
49139;SDS011;34959;49.310;8.646;2023-09-07T10:04:29;2.30;;;2.10;;
49139;SDS011;34959;49.310;8.646;2023-09-07T10:07:00;2.30;;;2.10;;
49139;SDS011;34959;49.310;8.646;2023-09-07T10:09:32;2.70;;;1.98;;
49139;SDS011;34959;49.310;8.646;2023-09-07T10:11:58;4.32;;;2.10;;
49139;SDS011;34959;49.310;8.646;2023-09-07T10:14:37;3.08;;;2.28;;
49139;SDS011;34959;49.310;8.646;2023-09-07T10:17:06;2.67;;;2.28;;
49139;SDS011;34959;49.310;8.646;2023-09-07T10:19:31;2.47;;;1.88;;
49139;SDS011;34959;49.310;8.646;2023-09-07T10:21:58;2.55;;;2.25;;
49139;SDS011;34959;49.310;8.646;2023-09-07T10:24:28;2.75;;;2.42;;
49139;SDS011;34959;49.310;8.646;2023-09-07T10:26:57;2.75;;;2.00;;
49139;SDS011;34959;49.310;8.646;2023-09-07T10:29:26;2.38;;;2.00;;
49139;SDS011;34959;49.310;8.646;2023-09-07T10:31:52;2.85;;;2.00;;
49139;SDS011;34959;49.310;8.646;2023-09-07T10:34:18;2.88;;;2.20;;
49139;SDS011;34959;49.310;8.646;2023-09-07T10:36:43;3.08;;;2.05;;
49139;SDS011;34959;49.310;8.646;2023-09-07T10:39:09;2.55;;;2.10;;
49139;SDS011;34959;49.310;8.646;2023-09-07T10:41:41;2.67;;;2.22;;
49139;SDS011;34959;49.310;8.646;2023-09-07T10:44:08;2.40;;;1.92;;
49139;SDS011;34959;49.310;8.646;2023-09-07T10:46:35;2.17;;;1.80;;
49139;SDS011;34959;49.310;8.646;2023-09-07T10:49:02;2.33;;;2.13;;
49139;SDS011;34959;49.310;8.646;2023-09-07T10:51:28;3.00;;;2.30;;
49139;SDS011;34959;49.310;8.646;2023-09-07T10:53:54;2.92;;;2.28;;
49139;SDS011;34959;49.310;8.646;2023-09-07T10:56:20;2.30;;;2.08;;
49139;SDS011;34959;49.310;8.646;2023-09-07T10:58:49;2.40;;;2.13;;
49139;SDS011;34959;49.310;8.646;2023-09-07T11:01:19;2.70;;;2.13;;
49139;SDS011;34959;49.310;8.646;2023-09-07T11:03:45;2.35;;;2.13;;
49139;SDS011;34959;49.310;8.646;2023-09-07T11:06:12;2.53;;;2.20;;
49139;SDS011;34959;49.310;8.646;2023-09-07T11:08:40;2.88;;;2.10;;
49139;SDS011;34959;49.310;8.646;2023-09-07T11:11:08;2.40;;;2.03;;
49139;SDS011;34959;49.310;8.646;2023-09-07T11:13:33;2.22;;;1.88;;
49139;SDS011;34959;49.310;8.646;2023-09-07T11:15:59;2.78;;;2.17;;
49139;SDS011;34959;49.310;8.646;2023-09-07T11:18:25;2.38;;;2.10;;
49139;SDS011;34959;49.310;8.646;2023-09-07T11:20:51;2.65;;;2.22;;
49139;SDS011;34959;49.310;8.646;2023-09-07T11:23:18;2.70;;;2.10;;
49139;SDS011;34959;49.310;8.646;2023-09-07T11:25:44;2.67;;;2.15;;
49139;SDS011;34959;49.310;8.646;2023-09-07T11:28:11;2.63;;;2.13;;
49139;SDS011;34959;49.310;8.646;2023-09-07T11:30:37;2.75;;;1.92;;
49139;SDS011;34959;49.310;8.646;2023-09-07T11:33:04;2.00;;;1.80;;
49139;SDS011;34959;49.310;8.646;2023-09-07T11:35:30;2.00;;;1.70;;
49139;SDS011;34959;49.310;8.646;2023-09-07T11:37:56;2.58;;;2.00;;
49139;SDS011;34959;49.310;8.646;2023-09-07T11:40:21;2.25;;;2.00;;
49139;SDS011;34959;49.310;8.646;2023-09-07T11:42:47;2.63;;;2.03;;
49139;SDS011;34959;49.310;8.646;2023-09-07T11:45:13;2.55;;;2.03;;
49139;SDS011;34959;49.310;8.646;2023-09-07T11:47:38;2.58;;;2.13;;
49139;SDS011;34959;49.310;8.646;2023-09-07T11:50:05;2.47;;;2.10;;
49139;SDS011;34959;49.310;8.646;2023-09-07T11:52:31;2.22;;;1.73;;
49139;SDS011;34959;49.310;8.646;2023-09-07T11:54:57;2.00;;;1.80;;
49139;SDS011;34959;49.310;8.646;2023-09-07T11:57:22;3.33;;;1.80;;
49139;SDS011;34959;49.310;8.646;2023-09-07T11:59:47;1.95;;;1.70;;
49139;SDS011;34959;49.310;8.646;2023-09-07T12:02:13;2.30;;;1.77;;
49139;SDS011;34959;49.310;8.646;2023-09-07T12:04:40;3.58;;;2.25;;
49139;SDS011;34959;49.310;8.646;2023-09-07T12:07:05;2.17;;;1.75;;
49139;SDS011;34959;49.310;8.646;2023-09-07T12:09:31;2.28;;;1.88;;
49139;SDS011;34959;49.310;8.646;2023-09-07T12:11:57;2.22;;;2.03;;
49139;SDS011;34959;49.310;8.646;2023-09-07T12:14:22;2.75;;;1.83;;
49139;SDS011;34959;49.310;8.646;2023-09-07T12:16:48;2.65;;;2.10;;
49139;SDS011;34959;49.310;8.646;2023-09-07T12:19:13;2.45;;;1.98;;
49139;SDS011;34959;49.310;8.646;2023-09-07T12:21:38;2.10;;;1.80;;
49139;SDS011;34959;49.310;8.646;2023-09-07T12:24:04;2.03;;;1.83;;
49139;SDS011;34959;49.310;8.646;2023-09-07T12:26:30;2.83;;;2.00;;
49139;SDS011;34959;49.310;8.646;2023-09-07T12:28:56;2.10;;;1.67;;
49139;SDS011;34959;49.310;8.646;2023-09-07T12:31:21;2.47;;;1.90;;
49139;SDS011;34959;49.310;8.646;2023-09-07T12:33:47;2.53;;;2.03;;
49139;SDS011;34959;49.310;8.646;2023-09-07T12:36:12;3.13;;;2.00;;
49139;SDS011;34959;49.310;8.646;2023-09-07T12:38:38;2.10;;;1.90;;
49139;SDS011;34959;49.310;8.646;2023-09-07T12:41:03;2.70;;;1.98;;
49139;SDS011;34959;49.310;8.646;2023-09-07T12:43:29;2.40;;;1.98;;
49139;SDS011;34959;49.310;8.646;2023-09-07T12:45:54;2.33;;;2.00;;
49139;SDS011;34959;49.310;8.646;2023-09-07T12:48:20;2.22;;;1.80;;
49139;SDS011;34959;49.310;8.646;2023-09-07T12:50:45;2.33;;;2.10;;
49139;SDS011;34959;49.310;8.646;2023-09-07T12:53:11;2.15;;;1.95;;
49139;SDS011;34959;49.310;8.646;2023-09-07T12:55:36;2.67;;;2.00;;
49139;SDS011;34959;49.310;8.646;2023-09-07T12:58:02;2.08;;;1.63;;
49139;SDS011;34959;49.310;8.646;2023-09-07T13:00:27;2.70;;;1.80;;
49139;SDS011;34959;49.310;8.646;2023-09-07T13:02:54;2.53;;;2.08;;
49139;SDS011;34959;49.310;8.646;2023-09-07T13:05:19;2.40;;;2.00;;
49139;SDS011;34959;49.310;8.646;2023-09-07T13:07:45;2.22;;;1.88;;
49139;SDS011;34959;49.310;8.646;2023-09-07T13:10:11;1.90;;;1.70;;
49139;SDS011;34959;49.310;8.646;2023-09-07T13:12:36;1.70;;;1.42;;
49139;SDS011;34959;49.310;8.646;2023-09-07T13:15:02;2.35;;;1.88;;
49139;SDS011;34959;49.310;8.646;2023-09-07T13:17:31;2.40;;;1.80;;
49139;SDS011;34959;49.310;8.646;2023-09-07T13:19:56;2.20;;;1.90;;
49139;SDS011;34959;49.310;8.646;2023-09-07T13:22:21;2.50;;;2.08;;
49139;SDS011;34959;49.310;8.646;2023-09-07T13:24:47;2.15;;;1.90;;
49139;SDS011;34959;49.310;8.646;2023-09-07T13:27:12;2.03;;;1.60;;
49139;SDS011;34959;49.310;8.646;2023-09-07T13:29:38;1.67;;;1.58;;
49139;SDS011;34959;49.310;8.646;2023-09-07T13:32:03;2.08;;;1.85;;
49139;SDS011;34959;49.310;8.646;2023-09-07T13:34:29;2.20;;;2.00;;
49139;SDS011;34959;49.310;8.646;2023-09-07T13:36:55;2.13;;;1.88;;
49139;SDS011;34959;49.310;8.646;2023-09-07T13:39:21;2.67;;;1.75;;
49139;SDS011;34959;49.310;8.646;2023-09-07T13:41:47;2.10;;;1.90;;
49139;SDS011;34959;49.310;8.646;2023-09-07T13:44:13;2.05;;;1.85;;
49139;SDS011;34959;49.310;8.646;2023-09-07T13:46:39;1.95;;;1.60;;
49139;SDS011;34959;49.310;8.646;2023-09-07T13:49:05;1.85;;;1.65;;
49139;SDS011;34959;49.310;8.646;2023-09-07T13:51:30;2.58;;;2.17;;
49139;SDS011;34959;49.310;8.646;2023-09-07T13:54:04;2.33;;;1.83;;
49139;SDS011;34959;49.310;8.646;2023-09-07T13:56:30;2.00;;;1.80;;
49139;SDS011;34959;49.310;8.646;2023-09-07T13:58:56;1.70;;;1.60;;
49139;SDS011;34959;49.310;8.646;2023-09-07T14:01:21;2.08;;;1.80;;
49139;SDS011;34959;49.310;8.646;2023-09-07T14:03:47;1.92;;;1.73;;
49139;SDS011;34959;49.310;8.646;2023-09-07T14:06:12;2.10;;;1.90;;
49139;SDS011;34959;49.310;8.646;2023-09-07T14:08:38;1.98;;;1.77;;
49139;SDS011;34959;49.310;8.646;2023-09-07T14:11:03;2.22;;;1.92;;
49139;SDS011;34959;49.310;8.646;2023-09-07T14:13:28;2.20;;;1.70;;
49139;SDS011;34959;49.310;8.646;2023-09-07T14:15:54;2.10;;;1.70;;
49139;SDS011;34959;49.310;8.646;2023-09-07T14:18:19;2.38;;;2.03;;
49139;SDS011;34959;49.310;8.646;2023-09-07T14:20:45;2.60;;;1.77;;
49139;SDS011;34959;49.310;8.646;2023-09-07T14:23:10;2.22;;;1.65;;
49139;SDS011;34959;49.310;8.646;2023-09-07T14:25:35;1.92;;;1.75;;
49139;SDS011;34959;49.310;8.646;2023-09-07T14:28:03;1.98;;;1.77;;
49139;SDS011;34959;49.310;8.646;2023-09-07T14:30:28;1.55;;;1.45;;
49139;SDS011;34959;49.310;8.646;2023-09-07T14:32:54;2.22;;;1.95;;
49139;SDS011;34959;49.310;8.646;2023-09-07T14:35:19;2.08;;;1.73;;
49139;SDS011;34959;49.310;8.646;2023-09-07T14:37:44;2.05;;;1.67;;
49139;SDS011;34959;49.310;8.646;2023-09-07T14:40:10;2.25;;;1.73;;
49139;SDS011;34959;49.310;8.646;2023-09-07T14:42:36;1.80;;;1.70;;